Time;durP1;ratioP1;P1;durP2;ratioP2;P2;SDS_P1;SDS_P2;PMS_P1;PMS_P2;Temp;Humidity;BMP_temperature;BMP_pressure;BME280_temperature;BME280_humidity;BME280_pressure;Samples;Min_cycle;Max_cycle;Signal;HPM_P1;HPM_P2
2023/03/25 00:00:23;;;;;;;2.40;0.90;;;11.10;99.90;;;;;;5055592;28;20455;-57
2023/03/25 00:02:52;;;;;;;2.33;0.87;;;11.10;99.80;;;;;;5055023;28;20905;-57
2023/03/25 00:05:20;;;;;;;6.00;1.40;;;11.10;99.80;;;;;;5055418;28;20481;-57
2023/03/25 00:07:49;;;;;;;2.87;1.20;;;11.10;99.60;;;;;;5055501;28;20481;-57
2023/03/25 00:10:18;;;;;;;3.57;1.03;;;11.10;99.40;;;;;;5055148;28;20449;-57
2023/03/25 00:12:45;;;;;;;5.10;0.80;;;11.10;99.20;;;;;;5055280;28;20462;-57
2023/03/25 00:15:15;;;;;;;2.67;0.73;;;11.10;99.30;;;;;;5055279;28;20457;-57
2023/03/25 00:17:42;;;;;;;6.17;1.20;;;11.10;99.20;;;;;;5055165;28;20464;-57
2023/03/25 00:20:11;;;;;;;2.97;1.03;;;11.20;99.20;;;;;;5053992;28;21012;-57
2023/03/25 00:22:39;;;;;;;3.37;0.87;;;11.20;98.80;;;;;;5055195;28;20480;-57
2023/03/25 00:25:08;;;;;;;3.00;1.20;;;11.10;98.70;;;;;;5055179;28;20457;-57
2023/03/25 00:27:37;;;;;;;4.13;1.10;;;11.20;99.10;;;;;;5054958;28;20485;-57
2023/03/25 00:30:04;;;;;;;4.33;1.87;;;11.20;98.80;;;;;;5055129;28;20878;-57
2023/03/25 00:32:31;;;;;;;6.17;1.37;;;11.20;98.90;;;;;;5054640;28;20995;-57
2023/03/25 00:34:58;;;;;;;5.40;1.20;;;11.30;98.40;;;;;;5054809;28;20450;-57
2023/03/25 00:37:26;;;;;;;6.70;1.40;;;11.30;98.40;;;;;;5055146;28;20553;-57
2023/03/25 00:39:52;;;;;;;5.57;1.37;;;11.30;98.10;;;;;;5054520;28;20515;-57
2023/03/25 00:42:24;;;;;;;2.50;1.00;;;11.20;97.90;;;;;;5054673;28;20453;-57
2023/03/25 00:44:53;;;;;;;2.60;0.97;;;11.20;97.90;;;;;;5054937;28;20491;-57
2023/03/25 00:47:20;;;;;;;5.90;1.23;;;11.20;98.00;;;;;;5054786;28;20512;-57
2023/03/25 00:49:47;;;;;;;4.70;0.80;;;11.20;97.80;;;;;;5054977;28;20460;-57
2023/03/25 00:52:14;;;;;;;5.30;1.20;;;11.20;98.00;;;;;;5054736;28;20511;-57
2023/03/25 00:54:42;;;;;;;6.30;1.33;;;11.10;97.90;;;;;;5054780;28;20446;-57
2023/03/25 00:57:09;;;;;;;4.33;0.97;;;11.10;97.80;;;;;;5054760;28;20476;-57
2023/03/25 00:59:35;;;;;;;4.20;0.90;;;11.00;97.60;;;;;;5054511;28;20481;-57
2023/03/25 01:02:05;;;;;;;4.30;1.10;;;11.00;97.80;;;;;;5054562;28;20453;-57
2023/03/25 01:04:32;;;;;;;5.33;1.10;;;10.90;97.60;;;;;;5054849;28;20476;-57
2023/03/25 01:07:00;;;;;;;7.77;1.10;;;10.90;97.70;;;;;;5054601;28;20481;-57
2023/03/25 01:09:27;;;;;;;6.63;1.40;;;10.90;97.40;;;;;;5054215;28;20465;-57
2023/03/25 01:11:53;;;;;;;2.80;1.00;;;11.00;97.30;;;;;;5054268;28;20449;-57
2023/03/25 01:14:26;;;;;;;3.67;1.00;;;10.80;96.80;;;;;;5054253;28;20476;-57
2023/03/25 01:16:53;;;;;;;5.70;1.63;;;10.80;97.10;;;;;;5054250;28;20854;-57
2023/03/25 01:19:22;;;;;;;2.87;1.20;;;10.80;97.20;;;;;;5054131;28;20450;-57
2023/03/25 01:21:49;;;;;;;4.23;0.83;;;10.80;97.00;;;;;;5054061;28;20462;-57
2023/03/25 01:24:16;;;;;;;3.20;0.90;;;10.80;97.20;;;;;;5054072;28;20485;-57
2023/03/25 01:26:44;;;;;;;6.00;1.00;;;10.70;97.20;;;;;;5053736;28;20955;-57
2023/03/25 01:29:11;;;;;;;2.10;0.90;;;10.60;97.10;;;;;;5053969;28;20446;-57
2023/03/25 01:31:38;;;;;;;3.53;1.00;;;10.60;97.20;;;;;;5053859;28;20499;-57
2023/03/25 01:34:05;;;;;;;5.80;1.70;;;10.60;97.50;;;;;;5053907;28;20466;-57
2023/03/25 01:36:34;;;;;;;3.93;1.23;;;10.70;97.60;;;;;;5054028;28;20448;-57
2023/03/25 01:39:04;;;;;;;2.67;0.77;;;10.60;97.70;;;;;;5053668;28;20515;-57
2023/03/25 01:41:33;;;;;;;5.33;0.80;;;10.60;97.80;;;;;;5053797;28;20503;-57
2023/03/25 01:44:08;;;;;;;1.23;0.80;;;10.70;98.00;;;;;;5053657;28;20507;-57
2023/03/25 01:46:35;;;;;;;2.83;0.97;;;10.70;97.90;;;;;;5053873;28;20417;-57
2023/03/25 01:49:04;;;;;;;2.10;0.73;;;10.70;97.60;;;;;;5053664;28;20489;-57
2023/03/25 01:51:35;;;;;;;1.37;0.87;;;10.60;97.50;;;;;;5053741;28;20449;-57
2023/03/25 01:54:03;;;;;;;1.63;0.90;;;10.50;97.50;;;;;;5053195;28;21006;-57
2023/03/25 01:56:36;;;;;;;6.70;0.93;;;10.40;97.70;;;;;;5053630;28;20453;-57
2023/03/25 01:59:06;;;;;;;1.90;0.80;;;10.50;97.80;;;;;;5053438;28;20430;-57
2023/03/25 02:01:33;;;;;;;1.33;0.83;;;10.40;97.60;;;;;;5053646;28;20453;-56
2023/03/25 02:04:01;;;;;;;3.13;1.40;;;10.40;97.70;;;;;;5054088;28;20472;-57
2023/03/25 02:06:34;;;;;;;3.50;0.90;;;10.50;97.80;;;;;;5054068;28;20475;-57
2023/03/25 02:09:05;;;;;;;5.33;0.73;;;10.40;97.80;;;;;;5053887;28;20476;-57
2023/03/25 02:11:32;;;;;;;1.80;0.63;;;10.40;97.70;;;;;;5053390;28;20509;-57
2023/03/25 02:14:02;;;;;;;2.17;0.90;;;10.30;97.80;;;;;;5053172;28;20469;-57
2023/03/25 02:16:35;;;;;;;1.33;0.50;;;10.20;97.90;;;;;;5053190;28;20469;-57
2023/03/25 02:19:25;;;;;;;5.70;0.90;;;10.20;98.30;;;;;;5053226;28;20783;-57
2023/03/25 02:22:19;;;;;;;4.83;0.87;;;10.10;98.20;;;;;;5053194;28;20504;-57
2023/03/25 02:25:20;;;;;;;2.40;0.70;;;10.00;98.60;;;;;;5053212;28;20944;-57
2023/03/25 02:28:02;;;;;;;3.17;1.20;;;9.90;99.30;;;;;;5053080;28;20473;-57
2023/03/25 02:30:56;;;;;;;1.60;0.63;;;10.00;98.90;;;;;;5053171;28;20425;-57
2023/03/25 02:33:44;;;;;;;1.43;1.00;;;10.00;99.00;;;;;;5052652;28;20971;-57
2023/03/25 02:36:56;;;;;;;1.93;0.73;;;9.90;99.40;;;;;;5053322;28;20429;-57
2023/03/25 02:39:31;;;;;;;3.90;0.90;;;9.90;99.60;;;;;;5052815;28;20875;-57
2023/03/25 02:42:04;;;;;;;2.87;0.87;;;9.90;99.90;;;;;;5053551;28;20436;-57
2023/03/25 02:44:36;;;;;;;6.10;1.10;;;9.90;99.90;;;;;;5056993;28;20820;-57
2023/03/25 02:47:06;;;;;;;2.20;1.07;;;9.90;99.90;;;;;;5057006;28;20840;-57
2023/03/25 02:49:37;;;;;;;1.13;0.90;;;9.90;99.90;;;;;;5056866;28;20845;-56
2023/03/25 02:52:10;;;;;;;3.50;1.17;;;9.80;99.90;;;;;;5056909;28;20442;-56
2023/03/25 02:54:40;;;;;;;3.80;0.93;;;9.80;99.90;;;;;;5071000;28;20456;-57
2023/03/25 02:57:08;;;;;;;2.07;1.03;;;9.90;99.90;;;;;;5076816;28;20448;-57
2023/03/25 02:59:37;;;;;;;2.20;1.20;;;9.90;99.90;;;;;;5076756;28;20441;-57
2023/03/25 03:02:08;;;;;;;2.97;1.10;;;10.00;99.90;;;;;;5076610;28;20448;-57
2023/03/25 03:04:45;;;;;;;1.17;0.63;;;9.90;99.90;;;;;;5076966;28;20464;-57
2023/03/25 03:07:20;;;;;;;1.90;1.20;;;9.90;99.90;;;;;;5076130;28;20472;-57
2023/03/25 03:09:53;;;;;;;4.80;1.23;;;10.00;99.90;;;;;;5076701;28;20455;-57
2023/03/25 03:12:37;;;;;;;2.93;1.20;;;10.00;99.90;;;;;;5076491;28;20433;-57
2023/03/25 03:15:17;;;;;;;5.63;1.20;;;9.90;99.90;;;;;;5076484;28;20429;-57
2023/03/25 03:17:56;;;;;;;5.30;1.33;;;9.90;99.90;;;;;;5076366;28;20432;-57
2023/03/25 03:20:35;;;;;;;4.23;1.10;;;10.00;99.90;;;;;;5076102;28;20808;-57
2023/03/25 03:23:09;;;;;;;6.87;1.80;;;10.00;99.80;;;;;;5076245;28;20468;-57
2023/03/25 03:25:48;;;;;;;6.13;1.60;;;10.00;99.70;;;;;;5076274;28;20429;-57
2023/03/25 03:28:23;;;;;;;2.20;1.30;;;10.00;99.70;;;;;;5076158;28;20511;-57
2023/03/25 03:30:54;;;;;;;3.77;1.30;;;9.90;99.90;;;;;;5076144;28;20793;-57
2023/03/25 03:33:27;;;;;;;8.10;1.20;;;9.80;99.90;;;;;;5075801;28;20887;-57
2023/03/25 03:36:00;;;;;;;3.33;1.27;;;9.80;99.90;;;;;;5075998;28;20446;-57
2023/03/25 03:38:29;;;;;;;5.30;2.07;;;9.80;99.90;;;;;;5075991;28;20459;-57
2023/03/25 03:41:01;;;;;;;6.00;1.13;;;9.70;99.90;;;;;;5075999;28;20444;-57
2023/03/25 03:43:31;;;;;;;4.37;1.07;;;9.70;99.90;;;;;;5076120;28;20475;-57
2023/03/25 03:46:02;;;;;;;3.00;1.30;;;9.70;99.90;;;;;;5076070;28;20456;-57
2023/03/25 03:48:37;;;;;;;6.07;1.60;;;9.70;99.90;;;;;;5076199;28;20464;-57
2023/03/25 03:51:09;;;;;;;5.50;1.20;;;9.70;99.90;;;;;;5076064;28;20509;-57
2023/03/25 03:53:39;;;;;;;5.80;1.53;;;9.80;99.90;;;;;;5074651;28;20475;-57
2023/03/25 03:56:10;;;;;;;4.77;1.10;;;9.80;99.90;;;;;;5075558;28;20429;-57
2023/03/25 03:58:41;;;;;;;6.93;1.90;;;9.80;99.90;;;;;;5075922;28;20425;-57
2023/03/25 04:01:12;;;;;;;6.50;1.23;;;9.80;99.90;;;;;;5075631;28;20919;-57
2023/03/25 04:03:43;;;;;;;3.63;1.37;;;9.80;99.90;;;;;;5075904;28;20460;-57
2023/03/25 04:06:19;;;;;;;5.90;1.27;;;9.80;99.90;;;;;;5075305;28;20911;-57
2023/03/25 04:08:57;;;;;;;5.10;1.47;;;9.90;99.90;;;;;;5075604;28;20487;-57
2023/03/25 04:11:31;;;;;;;4.27;1.57;;;9.90;99.90;;;;;;5075543;28;20425;-57
2023/03/25 04:14:00;;;;;;;2.70;0.90;;;9.90;99.90;;;;;;5075385;28;20518;-57
2023/03/25 04:16:28;;;;;;;4.60;1.23;;;9.90;99.90;;;;;;5075318;28;20819;-57
2023/03/25 04:18:57;;;;;;;7.00;1.50;;;9.90;99.80;;;;;;5075498;28;20472;-57
2023/03/25 04:21:24;;;;;;;7.23;1.50;;;9.90;99.70;;;;;;5075211;28;20449;-57
2023/03/25 04:23:51;;;;;;;5.83;1.17;;;9.90;99.40;;;;;;5075361;28;20469;-57
2023/03/25 04:26:18;;;;;;;7.27;1.00;;;10.00;98.90;;;;;;5074932;28;20448;-57
2023/03/25 04:28:48;;;;;;;5.67;1.03;;;9.90;99.20;;;;;;5074885;28;20516;-57
2023/03/25 04:31:16;;;;;;;4.00;1.57;;;10.00;98.50;;;;;;5075164;28;20594;-57
2023/03/25 04:33:47;;;;;;;5.10;1.13;;;10.00;98.10;;;;;;5075029;28;20477;-57
2023/03/25 04:36:14;;;;;;;2.57;1.33;;;10.00;98.10;;;;;;5074720;28;20926;-57
2023/03/25 04:38:44;;;;;;;3.30;1.10;;;10.00;98.10;;;;;;5074897;28;20452;-57
2023/03/25 04:41:12;;;;;;;2.77;1.40;;;10.00;98.10;;;;;;5074909;28;20524;-57
2023/03/25 04:43:40;;;;;;;5.37;1.13;;;10.00;97.80;;;;;;5074554;28;20508;-57
2023/03/25 04:46:12;;;;;;;8.10;1.40;;;10.00;97.80;;;;;;5074714;28;20445;-57
2023/03/25 04:48:40;;;;;;;4.20;1.03;;;10.10;97.70;;;;;;5074605;28;20982;-57
2023/03/25 04:51:09;;;;;;;7.80;2.20;;;10.10;97.70;;;;;;5074593;28;20531;-57
2023/03/25 04:53:35;;;;;;;7.33;1.67;;;10.10;97.70;;;;;;5074824;28;20481;-57
2023/03/25 04:56:03;;;;;;;7.67;1.30;;;10.00;97.70;;;;;;5074624;28;20460;-57
2023/03/25 04:58:30;;;;;;;6.87;1.40;;;10.00;98.00;;;;;;5074552;28;20441;-57
2023/03/25 05:01:04;;;;;;;8.13;1.20;;;10.00;98.60;;;;;;5075284;28;20484;-57
2023/03/25 05:03:32;;;;;;;9.53;1.40;;;10.00;98.40;;;;;;5074370;28;20469;-57
2023/03/25 05:05:59;;;;;;;3.63;1.30;;;10.00;98.40;;;;;;5074256;28;20456;-57
2023/03/25 05:08:27;;;;;;;3.00;1.50;;;9.90;98.80;;;;;;5074274;28;20487;-57
2023/03/25 05:10:55;;;;;;;8.10;1.20;;;10.00;98.20;;;;;;5074599;28;20938;-57
2023/03/25 05:13:21;;;;;;;6.13;1.40;;;10.00;98.30;;;;;;5074164;28;20475;-57
2023/03/25 05:15:48;;;;;;;4.40;1.67;;;10.00;98.30;;;;;;5074218;28;20452;-57
2023/03/25 05:18:16;;;;;;;5.97;1.47;;;9.90;98.80;;;;;;5074072;28;20456;-57
2023/03/25 05:20:49;;;;;;;5.10;1.30;;;9.90;99.00;;;;;;5074147;28;20448;-57
2023/03/25 05:23:17;;;;;;;2.50;0.97;;;9.90;99.30;;;;;;5073690;28;20464;-57
2023/03/25 05:25:44;;;;;;;5.33;1.23;;;9.90;99.90;;;;;;5073885;28;20445;-57
2023/03/25 05:28:12;;;;;;;4.87;1.20;;;10.00;99.10;;;;;;5073940;28;20444;-57
2023/03/25 05:30:40;;;;;;;6.87;1.50;;;9.90;99.60;;;;;;5073940;28;20449;-57
2023/03/25 05:33:09;;;;;;;6.73;1.50;;;10.00;99.10;;;;;;5073822;28;20464;-57
2023/03/25 05:35:35;;;;;;;8.03;1.47;;;9.90;99.70;;;;;;5073388;28;20453;-57
2023/03/25 05:38:04;;;;;;;5.20;1.43;;;10.00;98.80;;;;;;5073659;28;20521;-57
2023/03/25 05:40:32;;;;;;;5.40;1.27;;;10.00;98.90;;;;;;5073900;28;20455;-57
2023/03/25 05:42:59;;;;;;;4.27;1.03;;;9.90;99.40;;;;;;5073608;28;20525;-57
2023/03/25 05:45:26;;;;;;;3.37;1.27;;;9.90;99.60;;;;;;5073636;28;20441;-57
2023/03/25 05:47:53;;;;;;;6.47;1.47;;;9.90;99.30;;;;;;5073363;28;20816;-57
2023/03/25 05:50:20;;;;;;;5.73;1.20;;;10.00;98.90;;;;;;5073559;28;20846;-57
2023/03/25 05:52:48;;;;;;;10.63;1.50;;;9.90;99.40;;;;;;5073030;28;20850;-57
2023/03/25 05:55:18;;;;;;;6.93;1.87;;;9.80;99.40;;;;;;5053430;28;20507;-57
2023/03/25 05:57:46;;;;;;;4.67;1.60;;;9.90;99.60;;;;;;5054320;28;20440;-57
2023/03/25 06:00:15;;;;;;;9.40;1.63;;;9.90;99.70;;;;;;5053570;28;20445;-57
2023/03/25 06:02:42;;;;;;;8.97;1.20;;;9.90;99.90;;;;;;5053355;28;20473;-57
2023/03/25 06:05:12;;;;;;;9.87;1.63;;;9.90;99.90;;;;;;5053270;28;20488;-57
2023/03/25 06:07:41;;;;;;;5.47;1.57;;;9.80;99.90;;;;;;5053254;28;20843;-57
2023/03/25 06:10:09;;;;;;;2.87;1.90;;;9.80;99.90;;;;;;5053557;28;20478;-56
2023/03/25 06:12:38;;;;;;;5.70;1.77;;;9.80;99.90;;;;;;5053723;28;20474;-55
2023/03/25 06:15:06;;;;;;;6.47;1.27;;;9.70;99.90;;;;;;5053371;28;20503;-55
2023/03/25 06:17:33;;;;;;;7.53;1.70;;;9.70;99.90;;;;;;5052589;28;20456;-56
2023/03/25 06:20:05;;;;;;;7.03;2.13;;;9.70;99.90;;;;;;5054127;28;20457;-55
2023/03/25 06:22:32;;;;;;;5.07;1.27;;;9.70;99.90;;;;;;5053205;28;20836;-55
2023/03/25 06:25:00;;;;;;;6.23;2.03;;;9.60;99.90;;;;;;5053825;28;20552;-56
2023/03/25 06:27:27;;;;;;;4.83;1.63;;;9.50;99.90;;;;;;5053274;28;20816;-56
2023/03/25 06:29:55;;;;;;;6.70;1.80;;;9.60;99.90;;;;;;5052814;28;20914;-56
2023/03/25 06:32:22;;;;;;;7.93;2.17;;;9.60;99.90;;;;;;5053161;28;20518;-56
2023/03/25 06:34:48;;;;;;;9.60;1.90;;;9.60;99.90;;;;;;5052816;28;20944;-56
2023/03/25 06:37:15;;;;;;;5.87;1.27;;;9.60;99.90;;;;;;5053219;28;20445;-56
2023/03/25 06:39:48;;;;;;;3.97;1.60;;;9.60;99.90;;;;;;5052819;28;20456;-56
2023/03/25 06:42:15;;;;;;;9.57;1.80;;;9.60;99.90;;;;;;5053293;28;20441;-56
2023/03/25 06:44:42;;;;;;;9.70;1.60;;;9.50;99.90;;;;;;5052976;28;20975;-56
2023/03/25 06:47:10;;;;;;;11.93;2.50;;;9.50;99.90;;;;;;5052832;28;20993;-56
2023/03/25 06:49:36;;;;;;;7.23;1.93;;;9.50;99.90;;;;;;5053140;28;20510;-56
2023/03/25 06:52:03;;;;;;;6.60;1.60;;;9.60;99.90;;;;;;5052947;28;20430;-56
2023/03/25 06:54:30;;;;;;;8.37;1.90;;;9.60;99.90;;;;;;5054207;28;20466;-56
2023/03/25 06:56:56;;;;;;;5.40;1.48;;;9.60;99.90;;;;;;5053159;28;20448;-55
2023/03/25 06:59:23;;;;;;;3.33;1.33;;;9.80;99.90;;;;;;5053520;28;20204;-56
2023/03/25 07:01:50;;;;;;;5.50;2.00;;;9.90;99.90;;;;;;5053214;28;20457;-56
2023/03/25 07:04:18;;;;;;;8.13;2.07;;;9.90;99.90;;;;;;5053024;28;21006;-56
2023/03/25 07:06:44;;;;;;;10.57;1.60;;;9.90;99.90;;;;;;5053062;28;20445;-56
2023/03/25 07:09:11;;;;;;;7.80;1.60;;;9.80;99.90;;;;;;5052847;28;20481;-56
2023/03/25 07:11:38;;;;;;;8.80;1.30;;;9.90;99.90;;;;;;5053000;28;20445;-56
2023/03/25 07:14:05;;;;;;;7.00;2.10;;;10.00;99.90;;;;;;5053042;28;20933;-56
2023/03/25 07:16:31;;;;;;;7.40;1.73;;;10.00;99.90;;;;;;5052972;28;20445;-56
2023/03/25 07:18:58;;;;;;;3.80;1.50;;;10.10;99.90;;;;;;5052953;28;20449;-56
2023/03/25 07:21:26;;;;;;;6.37;1.53;;;10.10;99.90;;;;;;5052826;28;20821;-57
2023/03/25 07:23:53;;;;;;;3.33;1.40;;;10.10;99.90;;;;;;5052790;28;20877;-56
2023/03/25 07:26:20;;;;;;;5.63;1.60;;;10.10;99.90;;;;;;5052681;28;20830;-56
2023/03/25 07:28:47;;;;;;;11.23;1.20;;;10.10;99.90;;;;;;5054699;28;20453;-56
2023/03/25 07:31:15;;;;;;;5.50;1.53;;;10.10;99.90;;;;;;5056547;28;20456;-56
2023/03/25 07:33:42;;;;;;;6.57;1.70;;;10.10;99.90;;;;;;5056243;28;20564;-56
2023/03/25 07:36:11;;;;;;;5.73;1.33;;;10.00;99.90;;;;;;5056318;28;20441;-56
2023/03/25 07:38:39;;;;;;;8.80;1.77;;;10.00;99.90;;;;;;5056133;28;20834;-56
2023/03/25 07:41:07;;;;;;;5.70;1.80;;;10.00;99.90;;;;;;5056319;28;20444;-56
2023/03/25 07:43:34;;;;;;;7.30;2.30;;;10.00;99.90;;;;;;5056313;28;20457;-56
2023/03/25 07:46:00;;;;;;;11.50;2.20;;;10.00;99.90;;;;;;5056177;28;20452;-56
2023/03/25 07:48:27;;;;;;;18.23;1.80;;;9.90;99.90;;;;;;5056482;28;20449;-55
2023/03/25 07:50:54;;;;;;;9.10;1.90;;;9.90;99.90;;;;;;5056446;28;20478;-56
2023/03/25 07:53:21;;;;;;;3.50;1.63;;;9.90;99.90;;;;;;5056547;28;20486;-56
2023/03/25 07:55:49;;;;;;;14.90;3.37;;;9.90;99.90;;;;;;5056149;28;20454;-57
2023/03/25 07:58:16;;;;;;;6.33;2.10;;;10.00;99.90;;;;;;5055555;28;21017;-57
2023/03/25 08:00:43;;;;;;;9.07;2.07;;;10.10;99.90;;;;;;5055998;28;20846;-57
2023/03/25 08:03:10;;;;;;;6.47;2.13;;;10.30;99.90;;;;;;5055492;28;20991;-56
2023/03/25 08:05:37;;;;;;;4.00;1.47;;;10.40;99.10;;;;;;5055606;28;20445;-56
2023/03/25 08:08:05;;;;;;;9.27;2.33;;;10.50;98.80;;;;;;5055455;28;20446;-56
2023/03/25 08:10:33;;;;;;;10.30;2.60;;;10.60;98.10;;;;;;5055237;28;20476;-56
2023/03/25 08:13:02;;;;;;;7.53;1.80;;;10.60;98.20;;;;;;5055373;28;20474;-56
2023/03/25 08:15:28;;;;;;;9.33;1.80;;;10.60;97.80;;;;;;5055105;28;20452;-56
2023/03/25 08:17:56;;;;;;;5.43;1.70;;;10.70;97.60;;;;;;5055307;28;20472;-56
2023/03/25 08:20:22;;;;;;;6.60;1.97;;;10.60;98.20;;;;;;5055041;28;21077;-56
2023/03/25 08:22:50;;;;;;;8.00;1.97;;;10.70;98.10;;;;;;5055093;28;20473;-56
2023/03/25 08:25:16;;;;;;;9.03;1.83;;;10.70;97.70;;;;;;5054885;28;20994;-56
2023/03/25 08:27:43;;;;;;;7.33;2.40;;;10.80;97.50;;;;;;5055157;28;20460;-56
2023/03/25 08:30:13;;;;;;;6.43;1.60;;;10.90;96.40;;;;;;5054740;28;20477;-56
2023/03/25 08:32:40;;;;;;;8.13;2.47;;;11.00;96.50;;;;;;5054888;28;20551;-56
2023/03/25 08:35:07;;;;;;;7.70;2.07;;;11.00;96.10;;;;;;5054910;28;20453;-56
2023/03/25 08:37:36;;;;;;;6.87;1.90;;;11.10;96.00;;;;;;5054927;28;20446;-56
2023/03/25 08:40:06;;;;;;;5.47;1.83;;;11.10;96.20;;;;;;5053670;28;20475;-56
2023/03/25 08:42:32;;;;;;;8.03;2.73;;;11.10;96.60;;;;;;5054417;28;20848;-57
2023/03/25 08:44:59;;;;;;;9.87;2.00;;;11.10;96.30;;;;;;5054582;28;20450;-56
2023/03/25 08:47:27;;;;;;;8.07;1.90;;;11.20;95.50;;;;;;5054848;28;20450;-56
2023/03/25 08:49:54;;;;;;;11.20;2.10;;;11.20;95.70;;;;;;5054670;28;20485;-56
2023/03/25 08:52:20;;;;;;;7.40;2.57;;;11.30;95.50;;;;;;5054516;28;20456;-57
2023/03/25 08:54:47;;;;;;;11.03;2.10;;;11.40;95.40;;;;;;5054646;28;20461;-56
2023/03/25 08:57:14;;;;;;;5.77;1.70;;;11.50;95.10;;;;;;5054511;28;20452;-56
2023/03/25 08:59:41;;;;;;;13.00;3.60;;;11.70;95.40;;;;;;5054591;28;20442;-57
2023/03/25 09:02:09;;;;;;;9.63;1.67;;;11.80;94.50;;;;;;5054350;28;20511;-56
2023/03/25 09:04:37;;;;;;;11.47;2.43;;;11.80;93.70;;;;;;5054346;28;20499;-56
2023/03/25 09:07:04;;;;;;;17.30;3.33;;;11.80;94.70;;;;;;5053797;28;20443;-57
2023/03/25 09:09:31;;;;;;;10.60;2.27;;;11.90;95.00;;;;;;5054033;28;20886;-56
2023/03/25 09:11:58;;;;;;;12.17;2.90;;;11.80;93.40;;;;;;5054353;28;20457;-56
2023/03/25 09:14:24;;;;;;;13.83;2.70;;;11.70;93.40;;;;;;5053703;28;20979;-56
2023/03/25 09:16:51;;;;;;;19.00;2.17;;;11.70;93.40;;;;;;5053996;28;20454;-56
2023/03/25 09:19:18;;;;;;;5.60;2.17;;;11.60;93.00;;;;;;5054172;28;20461;-56
2023/03/25 09:21:46;;;;;;;8.23;1.80;;;11.60;93.30;;;;;;5054047;28;20454;-56
2023/03/25 09:24:13;;;;;;;11.27;3.30;;;11.70;93.10;;;;;;5053613;28;20478;-57
2023/03/25 09:26:40;;;;;;;6.50;1.83;;;11.70;93.10;;;;;;5054046;28;20449;-56
2023/03/25 09:29:06;;;;;;;14.63;2.73;;;11.80;92.90;;;;;;5053944;28;20445;-56
2023/03/25 09:31:34;;;;;;;8.67;2.80;;;11.80;92.80;;;;;;5053449;28;21068;-56
2023/03/25 09:34:01;;;;;;;11.93;2.90;;;11.90;93.10;;;;;;5053591;28;20527;-57
2023/03/25 09:36:28;;;;;;;8.40;2.17;;;11.80;92.80;;;;;;5053725;28;20454;-56
2023/03/25 09:38:56;;;;;;;13.60;2.80;;;11.80;92.30;;;;;;5053538;28;20461;-56
2023/03/25 09:41:41;;;;;;;15.57;2.30;;;11.80;93.00;;;;;;5053320;28;20471;-57
2023/03/25 09:44:17;;;;;;;7.30;1.63;;;11.70;92.60;;;;;;5053984;28;20474;-56
2023/03/25 09:46:44;;;;;;;12.23;2.20;;;11.70;91.90;;;;;;5053803;28;20432;-56
2023/03/25 09:49:16;;;;;;;10.40;2.80;;;11.70;92.40;;;;;;5054101;28;20446;-57
2023/03/25 09:51:45;;;;;;;7.47;2.00;;;11.80;92.80;;;;;;5053049;28;20841;-57
2023/03/25 09:54:20;;;;;;;8.30;2.17;;;11.90;93.20;;;;;;5053782;28;20492;-57
2023/03/25 09:56:49;;;;;;;15.30;2.23;;;12.00;92.80;;;;;;5053643;28;20430;-57
2023/03/25 09:59:22;;;;;;;8.70;2.03;;;12.00;92.80;;;;;;5053626;28;20484;-56
2023/03/25 10:01:56;;;;;;;11.10;2.70;;;12.00;92.50;;;;;;5053428;28;20430;-57
2023/03/25 10:04:49;;;;;;;4.90;1.73;;;11.90;93.00;;;;;;5053483;28;20468;-57
2023/03/25 10:07:31;;;;;;;9.97;2.13;;;11.90;92.30;;;;;;5053414;28;20437;-57
2023/03/25 10:10:09;;;;;;;8.77;1.73;;;12.00;92.70;;;;;;5053101;28;20874;-57
2023/03/25 10:12:43;;;;;;;8.87;1.87;;;12.10;92.70;;;;;;5053308;28;20564;-56
2023/03/25 10:15:25;;;;;;;13.47;2.20;;;12.20;92.70;;;;;;5053354;28;20441;-57
2023/03/25 10:18:04;;;;;;;11.20;2.00;;;12.20;92.70;;;;;;5053345;28;20433;-56
2023/03/25 10:20:43;;;;;;;8.33;3.00;;;12.20;92.80;;;;;;5053094;28;20433;-56
2023/03/25 10:23:20;;;;;;;6.00;2.47;;;12.20;91.60;;;;;;5053272;28;20477;-56
2023/03/25 10:25:54;;;;;;;16.53;2.50;;;12.30;92.20;;;;;;5053053;28;20453;-56
2023/03/25 10:28:27;;;;;;;11.13;2.93;;;12.40;91.80;;;;;;5053276;28;20436;-56
2023/03/25 10:30:54;;;;;;;11.23;2.83;;;12.30;91.50;;;;;;5052994;28;20461;-58
2023/03/25 10:33:28;;;;;;;11.03;2.10;;;12.40;92.10;;;;;;5052928;28;20473;-57
2023/03/25 10:35:58;;;;;;;12.83;2.30;;;12.50;91.60;;;;;;5053063;28;20438;-57
2023/03/25 10:38:25;;;;;;;14.90;2.20;;;12.50;91.10;;;;;;5052706;28;20464;-57
2023/03/25 10:41:03;;;;;;;10.50;2.30;;;12.70;91.30;;;;;;5052903;28;20449;-57
2023/03/25 10:43:34;;;;;;;10.40;2.80;;;12.80;90.70;;;;;;5051827;28;20448;-57
2023/03/25 10:46:06;;;;;;;12.73;1.90;;;12.80;90.60;;;;;;5053250;28;20198;-56
2023/03/25 10:48:33;;;;;;;12.13;2.53;;;13.10;91.10;;;;;;5053093;28;20442;-56
2023/03/25 10:51:04;;;;;;;11.40;3.20;;;13.30;88.80;;;;;;5052516;28;21003;-56
2023/03/25 10:53:31;;;;;;;8.70;2.93;;;13.20;88.90;;;;;;5053084;28;20469;-57
2023/03/25 10:56:04;;;;;;;9.77;3.67;;;13.60;88.20;;;;;;5052920;28;20445;-57
2023/03/25 10:58:31;;;;;;;6.43;1.70;;;14.00;86.60;;;;;;5052617;28;20939;-57
2023/03/25 11:01:00;;;;;;;16.70;2.57;;;14.20;84.80;;;;;;5052939;28;20441;-57
2023/03/25 11:03:31;;;;;;;10.23;2.37;;;14.50;82.40;;;;;;5054126;28;20477;-57
2023/03/25 11:05:58;;;;;;;9.53;2.20;;;14.80;82.10;;;;;;5056668;28;20429;-57
2023/03/25 11:08:26;;;;;;;11.00;2.40;;;14.80;79.80;;;;;;5056301;28;20851;-56
2023/03/25 11:10:56;;;;;;;10.33;2.67;;;14.50;82.50;;;;;;5056279;28;20477;-56
2023/03/25 11:13:26;;;;;;;15.77;2.83;;;14.80;81.40;;;;;;5056152;28;21002;-57
2023/03/25 11:15:56;;;;;;;15.30;3.13;;;14.90;79.30;;;;;;5056646;28;20437;-56
2023/03/25 11:18:28;;;;;;;12.23;2.03;;;14.70;80.00;;;;;;5056529;28;20828;-57
2023/03/25 11:20:57;;;;;;;14.17;2.50;;;14.40;82.00;;;;;;5056022;28;20804;-57
2023/03/25 11:23:27;;;;;;;13.93;3.27;;;14.10;83.00;;;;;;5056341;28;20556;-57
2023/03/25 11:25:56;;;;;;;11.20;1.43;;;14.30;83.60;;;;;;5056312;28;20429;-57
2023/03/25 11:28:36;;;;;;;9.83;2.40;;;14.60;80.30;;;;;;5056044;28;20449;-57
2023/03/25 11:31:08;;;;;;;15.47;2.10;;;14.30;80.30;;;;;;5056192;28;20469;-57
2023/03/25 11:33:35;;;;;;;8.93;2.20;;;13.90;85.50;;;;;;5055744;28;20823;-57
2023/03/25 11:36:12;;;;;;;12.23;2.17;;;13.70;90.00;;;;;;5055887;28;20453;-57
2023/03/25 11:38:40;;;;;;;13.47;2.10;;;13.50;89.60;;;;;;5055498;28;20534;-57
2023/03/25 11:41:07;;;;;;;10.10;1.83;;;13.20;90.60;;;;;;5055908;28;20445;-57
2023/03/25 11:43:37;;;;;;;10.23;3.10;;;13.00;91.10;;;;;;5055994;28;20482;-57
2023/03/25 11:46:15;;;;;;;8.80;2.10;;;12.80;93.10;;;;;;5056080;28;20456;-57
2023/03/25 11:48:44;;;;;;;7.33;2.23;;;12.60;95.50;;;;;;5055843;28;20441;-57
2023/03/25 11:51:13;;;;;;;11.63;2.97;;;12.40;95.70;;;;;;5055763;28;20485;-56
2023/03/25 11:53:45;;;;;;;14.33;2.97;;;12.10;97.00;;;;;;5055535;28;20849;-56
2023/03/25 11:56:15;;;;;;;10.70;2.27;;;11.80;98.30;;;;;;5055801;28;20434;-55
2023/03/25 11:58:43;;;;;;;9.67;2.63;;;11.70;99.90;;;;;;5055865;28;20441;-55
2023/03/25 12:01:22;;;;;;;15.13;2.90;;;11.70;99.90;;;;;;5055657;28;20441;-56
2023/03/25 12:03:49;;;;;;;10.40;2.23;;;11.50;99.90;;;;;;5055577;28;20523;-55
2023/03/25 12:06:18;;;;;;;12.67;2.90;;;11.40;99.90;;;;;;5055636;28;20472;-55
2023/03/25 12:08:50;;;;;;;6.73;2.10;;;11.20;99.90;;;;;;5055288;28;20951;-55
2023/03/25 12:11:23;;;;;;;10.53;1.90;;;11.00;99.90;;;;;;5055426;28;20469;-56
2023/03/25 12:14:19;;;;;;;4.83;2.00;;;10.90;99.90;;;;;;5054993;28;20834;-55
2023/03/25 12:16:55;;;;;;;13.00;3.63;;;10.90;99.90;;;;;;5054973;28;20442;-55
2023/03/25 12:19:31;;;;;;;11.57;2.50;;;11.00;99.90;;;;;;5055332;28;20489;-56
2023/03/25 12:22:09;;;;;;;11.57;2.67;;;11.00;99.90;;;;;;5055240;28;20441;-56
2023/03/25 12:25:01;;;;;;;7.70;2.40;;;11.10;99.90;;;;;;5055103;28;20465;-56
2023/03/25 12:27:41;;;;;;;7.80;1.80;;;11.20;99.90;;;;;;5055005;28;20438;-56
2023/03/25 12:30:20;;;;;;;12.97;2.70;;;11.80;99.90;;;;;;5054769;28;20813;-56
2023/03/25 12:32:53;;;;;;;7.10;2.47;;;12.30;99.80;;;;;;5055157;28;20540;-57
2023/03/25 12:35:30;;;;;;;11.40;3.10;;;12.70;98.50;;;;;;5055040;28;20438;-57
2023/03/25 12:38:25;;;;;;;9.80;2.47;;;12.90;97.50;;;;;;5055613;28;20434;-57
2023/03/25 12:41:02;;;;;;;7.87;1.93;;;12.90;95.50;;;;;;5055079;28;20430;-55
2023/03/25 12:43:37;;;;;;;13.23;3.30;;;12.70;95.40;;;;;;5055024;28;20469;-55
2023/03/25 12:46:22;;;;;;;15.93;2.60;;;12.60;96.60;;;;;;5055028;28;20445;-55
2023/03/25 12:49:12;;;;;;;9.83;2.30;;;12.50;95.90;;;;;;5055160;28;20426;-56
2023/03/25 12:51:47;;;;;;;7.43;2.73;;;12.30;94.40;;;;;;5054734;28;20486;-56
2023/03/25 12:54:32;;;;;;;9.73;2.33;;;12.10;93.60;;;;;;5054670;28;20465;-56
2023/03/25 12:57:14;;;;;;;7.60;2.50;;;12.10;94.90;;;;;;5054797;28;20438;-56
2023/03/25 13:00:14;;;;;;;5.20;1.90;;;12.00;94.90;;;;;;5054638;28;20480;-55
2023/03/25 13:03:04;;;;;;;11.47;2.50;;;11.90;95.50;;;;;;5054160;28;20548;-55
2023/03/25 13:05:37;;;;;;;11.50;2.20;;;11.80;96.60;;;;;;5054501;28;20441;-55